sensor_id;sensor_type;location;lat;lon;timestamp;P1;durP1;ratioP1;P2;durP2;ratioP2
71298;SDS011;59083;47.974;21.722;2023-05-10T00:01:08;7.70;;;3.70;;
71298;SDS011;59083;47.974;21.722;2023-05-10T00:04:10;8.05;;;3.97;;
71298;SDS011;59083;47.974;21.722;2023-05-10T00:07:11;8.60;;;3.67;;
71298;SDS011;59083;47.974;21.722;2023-05-10T00:10:12;8.52;;;4.20;;
71298;SDS011;59083;47.974;21.722;2023-05-10T00:13:13;6.87;;;3.58;;
71298;SDS011;59083;47.974;21.722;2023-05-10T00:16:15;8.20;;;4.00;;
71298;SDS011;59083;47.974;21.722;2023-05-10T00:19:16;7.70;;;3.62;;
71298;SDS011;59083;47.974;21.722;2023-05-10T00:22:17;8.40;;;3.83;;
71298;SDS011;59083;47.974;21.722;2023-05-10T00:25:18;8.43;;;3.97;;
71298;SDS011;59083;47.974;21.722;2023-05-10T00:28:19;6.55;;;3.47;;
71298;SDS011;59083;47.974;21.722;2023-05-10T00:31:20;10.82;;;3.60;;
71298;SDS011;59083;47.974;21.722;2023-05-10T00:34:22;8.85;;;4.03;;
71298;SDS011;59083;47.974;21.722;2023-05-10T00:37:23;6.57;;;3.57;;
71298;SDS011;59083;47.974;21.722;2023-05-10T00:40:24;7.93;;;3.62;;
71298;SDS011;59083;47.974;21.722;2023-05-10T00:43:26;7.75;;;3.92;;
71298;SDS011;59083;47.974;21.722;2023-05-10T00:46:28;10.90;;;4.20;;
71298;SDS011;59083;47.974;21.722;2023-05-10T00:49:30;7.87;;;3.78;;
71298;SDS011;59083;47.974;21.722;2023-05-10T00:52:32;10.30;;;4.10;;
71298;SDS011;59083;47.974;21.722;2023-05-10T00:55:34;9.15;;;3.25;;
71298;SDS011;59083;47.974;21.722;2023-05-10T00:58:35;8.00;;;4.03;;
71298;SDS011;59083;47.974;21.722;2023-05-10T01:01:37;9.38;;;3.83;;
71298;SDS011;59083;47.974;21.722;2023-05-10T01:04:38;8.88;;;3.90;;
71298;SDS011;59083;47.974;21.722;2023-05-10T01:07:40;7.37;;;3.43;;
71298;SDS011;59083;47.974;21.722;2023-05-10T01:10:42;7.72;;;3.85;;
71298;SDS011;59083;47.974;21.722;2023-05-10T01:13:44;7.68;;;3.78;;
71298;SDS011;59083;47.974;21.722;2023-05-10T01:16:52;7.12;;;3.70;;
71298;SDS011;59083;47.974;21.722;2023-05-10T01:19:54;10.35;;;4.07;;
71298;SDS011;59083;47.974;21.722;2023-05-10T01:26:18;8.30;;;4.12;;
71298;SDS011;59083;47.974;21.722;2023-05-10T01:36:24;12.05;;;4.25;;
71298;SDS011;59083;47.974;21.722;2023-05-10T01:39:40;7.97;;;3.80;;
71298;SDS011;59083;47.974;21.722;2023-05-10T01:42:50;10.93;;;3.80;;
71298;SDS011;59083;47.974;21.722;2023-05-10T01:49:41;8.27;;;3.65;;
71298;SDS011;59083;47.974;21.722;2023-05-10T01:52:51;8.75;;;3.83;;
71298;SDS011;59083;47.974;21.722;2023-05-10T01:55:55;9.80;;;4.20;;
71298;SDS011;59083;47.974;21.722;2023-05-10T01:58:57;7.95;;;4.28;;
71298;SDS011;59083;47.974;21.722;2023-05-10T02:02:01;8.27;;;4.37;;
71298;SDS011;59083;47.974;21.722;2023-05-10T02:05:05;7.78;;;3.97;;
71298;SDS011;59083;47.974;21.722;2023-05-10T02:08:07;7.35;;;3.87;;
71298;SDS011;59083;47.974;21.722;2023-05-10T02:11:12;10.87;;;4.37;;
71298;SDS011;59083;47.974;21.722;2023-05-10T02:14:14;8.80;;;4.28;;
71298;SDS011;59083;47.974;21.722;2023-05-10T02:17:17;10.20;;;4.45;;
71298;SDS011;59083;47.974;21.722;2023-05-10T02:20:20;8.73;;;4.20;;
71298;SDS011;59083;47.974;21.722;2023-05-10T02:23:23;7.93;;;4.20;;
71298;SDS011;59083;47.974;21.722;2023-05-10T02:26:25;8.93;;;4.37;;
71298;SDS011;59083;47.974;21.722;2023-05-10T02:29:27;9.88;;;4.53;;
71298;SDS011;59083;47.974;21.722;2023-05-10T02:32:29;8.80;;;4.10;;
71298;SDS011;59083;47.974;21.722;2023-05-10T02:35:31;9.45;;;4.30;;
71298;SDS011;59083;47.974;21.722;2023-05-10T02:38:34;9.55;;;4.45;;
71298;SDS011;59083;47.974;21.722;2023-05-10T02:41:37;10.60;;;4.80;;
71298;SDS011;59083;47.974;21.722;2023-05-10T02:44:40;7.97;;;3.85;;
71298;SDS011;59083;47.974;21.722;2023-05-10T02:47:42;8.82;;;4.20;;
71298;SDS011;59083;47.974;21.722;2023-05-10T02:50:44;8.80;;;4.30;;
71298;SDS011;59083;47.974;21.722;2023-05-10T02:53:52;9.50;;;4.57;;
71298;SDS011;59083;47.974;21.722;2023-05-10T02:57:00;8.87;;;4.37;;
71298;SDS011;59083;47.974;21.722;2023-05-10T03:00:05;11.63;;;4.53;;
71298;SDS011;59083;47.974;21.722;2023-05-10T03:03:07;8.65;;;4.30;;
71298;SDS011;59083;47.974;21.722;2023-05-10T03:06:09;10.63;;;4.30;;
71298;SDS011;59083;47.974;21.722;2023-05-10T03:09:10;8.70;;;4.10;;
71298;SDS011;59083;47.974;21.722;2023-05-10T03:19:01;9.00;;;4.10;;
71298;SDS011;59083;47.974;21.722;2023-05-10T03:22:39;9.88;;;4.20;;
71298;SDS011;59083;47.974;21.722;2023-05-10T03:25:46;10.60;;;4.85;;
71298;SDS011;59083;47.974;21.722;2023-05-10T03:28:49;8.00;;;4.30;;
71298;SDS011;59083;47.974;21.722;2023-05-10T03:31:51;8.55;;;4.20;;
71298;SDS011;59083;47.974;21.722;2023-05-10T03:34:52;10.27;;;4.70;;
71298;SDS011;59083;47.974;21.722;2023-05-10T03:37:54;9.55;;;4.25;;
71298;SDS011;59083;47.974;21.722;2023-05-10T03:40:55;9.05;;;4.30;;
71298;SDS011;59083;47.974;21.722;2023-05-10T03:43:56;9.60;;;4.77;;
71298;SDS011;59083;47.974;21.722;2023-05-10T03:46:58;10.63;;;4.75;;
71298;SDS011;59083;47.974;21.722;2023-05-10T03:49:59;8.00;;;4.53;;
71298;SDS011;59083;47.974;21.722;2023-05-10T03:53:01;9.82;;;3.67;;
71298;SDS011;59083;47.974;21.722;2023-05-10T03:56:03;12.15;;;4.43;;
71298;SDS011;59083;47.974;21.722;2023-05-10T03:59:04;6.97;;;3.73;;
71298;SDS011;59083;47.974;21.722;2023-05-10T04:02:08;7.30;;;4.15;;
71298;SDS011;59083;47.974;21.722;2023-05-10T04:05:10;8.32;;;3.92;;
71298;SDS011;59083;47.974;21.722;2023-05-10T04:08:12;8.40;;;3.92;;
71298;SDS011;59083;47.974;21.722;2023-05-10T04:11:13;8.60;;;4.32;;
71298;SDS011;59083;47.974;21.722;2023-05-10T04:14:14;7.00;;;3.67;;
71298;SDS011;59083;47.974;21.722;2023-05-10T04:17:16;12.60;;;4.37;;
71298;SDS011;59083;47.974;21.722;2023-05-10T04:20:17;8.88;;;3.72;;
71298;SDS011;59083;47.974;21.722;2023-05-10T04:23:18;9.63;;;4.50;;
71298;SDS011;59083;47.974;21.722;2023-05-10T04:26:19;11.57;;;5.60;;
71298;SDS011;59083;47.974;21.722;2023-05-10T04:29:21;8.40;;;4.00;;
71298;SDS011;59083;47.974;21.722;2023-05-10T04:32:22;8.00;;;4.10;;
71298;SDS011;59083;47.974;21.722;2023-05-10T04:35:24;8.98;;;3.92;;
71298;SDS011;59083;47.974;21.722;2023-05-10T04:38:25;8.20;;;4.10;;
71298;SDS011;59083;47.974;21.722;2023-05-10T04:41:26;8.50;;;4.05;;
71298;SDS011;59083;47.974;21.722;2023-05-10T04:44:27;9.30;;;4.20;;
71298;SDS011;59083;47.974;21.722;2023-05-10T04:47:29;8.95;;;4.55;;
71298;SDS011;59083;47.974;21.722;2023-05-10T04:50:30;10.55;;;4.28;;
71298;SDS011;59083;47.974;21.722;2023-05-10T04:53:31;8.13;;;4.03;;
71298;SDS011;59083;47.974;21.722;2023-05-10T04:56:33;11.80;;;4.50;;
71298;SDS011;59083;47.974;21.722;2023-05-10T04:59:35;9.03;;;3.80;;
71298;SDS011;59083;47.974;21.722;2023-05-10T05:02:37;6.82;;;3.70;;
71298;SDS011;59083;47.974;21.722;2023-05-10T05:05:38;8.35;;;4.20;;
71298;SDS011;59083;47.974;21.722;2023-05-10T05:08:39;14.10;;;4.22;;
71298;SDS011;59083;47.974;21.722;2023-05-10T05:11:41;8.05;;;4.25;;
71298;SDS011;59083;47.974;21.722;2023-05-10T05:14:42;9.20;;;3.80;;
71298;SDS011;59083;47.974;21.722;2023-05-10T05:17:43;7.25;;;4.00;;
71298;SDS011;59083;47.974;21.722;2023-05-10T05:20:44;8.48;;;4.10;;
71298;SDS011;59083;47.974;21.722;2023-05-10T05:23:45;9.30;;;4.62;;
71298;SDS011;59083;47.974;21.722;2023-05-10T05:26:47;9.25;;;4.25;;
71298;SDS011;59083;47.974;21.722;2023-05-10T05:29:49;9.33;;;4.87;;
71298;SDS011;59083;47.974;21.722;2023-05-10T05:32:50;10.70;;;4.40;;
71298;SDS011;59083;47.974;21.722;2023-05-10T05:35:52;8.60;;;3.95;;
71298;SDS011;59083;47.974;21.722;2023-05-10T05:38:53;7.90;;;4.28;;
71298;SDS011;59083;47.974;21.722;2023-05-10T05:41:54;8.73;;;4.28;;
71298;SDS011;59083;47.974;21.722;2023-05-10T05:44:55;8.80;;;4.30;;
71298;SDS011;59083;47.974;21.722;2023-05-10T05:47:57;9.93;;;4.57;;
71298;SDS011;59083;47.974;21.722;2023-05-10T05:50:58;10.25;;;4.47;;
71298;SDS011;59083;47.974;21.722;2023-05-10T05:53:59;9.75;;;4.60;;
71298;SDS011;59083;47.974;21.722;2023-05-10T05:57:00;8.93;;;4.37;;
71298;SDS011;59083;47.974;21.722;2023-05-10T06:00:02;9.77;;;4.80;;
71298;SDS011;59083;47.974;21.722;2023-05-10T06:03:13;9.10;;;4.75;;
71298;SDS011;59083;47.974;21.722;2023-05-10T06:06:14;9.23;;;4.75;;
71298;SDS011;59083;47.974;21.722;2023-05-10T06:09:15;9.00;;;4.82;;
71298;SDS011;59083;47.974;21.722;2023-05-10T06:12:17;19.27;;;5.70;;
71298;SDS011;59083;47.974;21.722;2023-05-10T06:15:18;12.23;;;4.30;;
71298;SDS011;59083;47.974;21.722;2023-05-10T06:18:19;9.27;;;4.80;;
71298;SDS011;59083;47.974;21.722;2023-05-10T06:21:20;11.07;;;4.97;;
71298;SDS011;59083;47.974;21.722;2023-05-10T06:24:21;8.43;;;4.60;;
71298;SDS011;59083;47.974;21.722;2023-05-10T06:27:23;11.38;;;4.95;;
71298;SDS011;59083;47.974;21.722;2023-05-10T06:30:24;11.17;;;5.03;;
71298;SDS011;59083;47.974;21.722;2023-05-10T06:33:28;9.10;;;4.70;;
71298;SDS011;59083;47.974;21.722;2023-05-10T06:36:30;10.13;;;5.12;;
71298;SDS011;59083;47.974;21.722;2023-05-10T06:39:31;10.55;;;4.75;;
71298;SDS011;59083;47.974;21.722;2023-05-10T06:42:32;9.57;;;5.10;;
71298;SDS011;59083;47.974;21.722;2023-05-10T06:45:33;13.00;;;5.50;;
71298;SDS011;59083;47.974;21.722;2023-05-10T06:48:35;10.85;;;5.18;;
71298;SDS011;59083;47.974;21.722;2023-05-10T06:51:36;10.15;;;5.22;;
71298;SDS011;59083;47.974;21.722;2023-05-10T06:54:38;9.35;;;5.22;;
71298;SDS011;59083;47.974;21.722;2023-05-10T06:57:39;11.65;;;5.30;;
71298;SDS011;59083;47.974;21.722;2023-05-10T07:00:40;8.00;;;4.90;;
71298;SDS011;59083;47.974;21.722;2023-05-10T07:03:44;9.18;;;5.62;;
71298;SDS011;59083;47.974;21.722;2023-05-10T07:06:45;11.73;;;5.35;;
71298;SDS011;59083;47.974;21.722;2023-05-10T07:09:47;9.65;;;4.80;;
71298;SDS011;59083;47.974;21.722;2023-05-10T07:12:48;9.77;;;4.50;;
71298;SDS011;59083;47.974;21.722;2023-05-10T07:15:49;8.23;;;4.50;;
71298;SDS011;59083;47.974;21.722;2023-05-10T07:18:50;11.95;;;4.25;;
71298;SDS011;59083;47.974;21.722;2023-05-10T07:21:51;10.40;;;4.30;;
71298;SDS011;59083;47.974;21.722;2023-05-10T07:24:53;9.70;;;4.50;;
71298;SDS011;59083;47.974;21.722;2023-05-10T07:27:54;10.70;;;4.30;;
71298;SDS011;59083;47.974;21.722;2023-05-10T07:30:56;12.40;;;4.63;;
71298;SDS011;59083;47.974;21.722;2023-05-10T07:33:57;8.30;;;4.50;;
71298;SDS011;59083;47.974;21.722;2023-05-10T07:36:58;9.35;;;4.70;;
71298;SDS011;59083;47.974;21.722;2023-05-10T07:40:00;9.23;;;4.35;;
71298;SDS011;59083;47.974;21.722;2023-05-10T07:43:01;12.85;;;4.40;;
71298;SDS011;59083;47.974;21.722;2023-05-10T07:46:02;8.90;;;4.07;;
71298;SDS011;59083;47.974;21.722;2023-05-10T07:49:04;11.23;;;4.25;;
71298;SDS011;59083;47.974;21.722;2023-05-10T07:52:05;11.02;;;4.35;;
71298;SDS011;59083;47.974;21.722;2023-05-10T07:55:06;16.08;;;4.32;;
71298;SDS011;59083;47.974;21.722;2023-05-10T07:58:08;10.45;;;3.58;;
71298;SDS011;59083;47.974;21.722;2023-05-10T08:01:09;7.10;;;3.80;;
71298;SDS011;59083;47.974;21.722;2023-05-10T08:04:11;10.05;;;4.10;;
71298;SDS011;59083;47.974;21.722;2023-05-10T08:07:12;11.98;;;4.95;;
71298;SDS011;59083;47.974;21.722;2023-05-10T08:10:13;8.52;;;4.00;;
71298;SDS011;59083;47.974;21.722;2023-05-10T08:13:15;6.75;;;3.53;;
71298;SDS011;59083;47.974;21.722;2023-05-10T08:16:16;9.40;;;3.50;;
71298;SDS011;59083;47.974;21.722;2023-05-10T08:19:18;6.95;;;3.30;;
71298;SDS011;59083;47.974;21.722;2023-05-10T08:22:22;6.93;;;3.37;;
71298;SDS011;59083;47.974;21.722;2023-05-10T08:25:23;6.97;;;3.42;;
71298;SDS011;59083;47.974;21.722;2023-05-10T08:28:25;10.43;;;3.62;;
71298;SDS011;59083;47.974;21.722;2023-05-10T08:31:26;8.53;;;3.53;;
71298;SDS011;59083;47.974;21.722;2023-05-10T08:34:27;7.28;;;3.35;;
71298;SDS011;59083;47.974;21.722;2023-05-10T08:37:29;6.45;;;3.08;;
71298;SDS011;59083;47.974;21.722;2023-05-10T08:40:31;8.15;;;3.30;;
71298;SDS011;59083;47.974;21.722;2023-05-10T08:43:32;8.80;;;2.83;;
71298;SDS011;59083;47.974;21.722;2023-05-10T08:46:37;6.17;;;2.90;;
71298;SDS011;59083;47.974;21.722;2023-05-10T08:49:44;7.12;;;2.78;;
71298;SDS011;59083;47.974;21.722;2023-05-10T08:52:49;7.75;;;3.42;;
71298;SDS011;59083;47.974;21.722;2023-05-10T08:55:54;7.95;;;2.78;;
71298;SDS011;59083;47.974;21.722;2023-05-10T08:58:56;5.78;;;2.85;;
71298;SDS011;59083;47.974;21.722;2023-05-10T09:01:58;6.70;;;2.90;;
71298;SDS011;59083;47.974;21.722;2023-05-10T09:05:00;5.82;;;2.78;;
71298;SDS011;59083;47.974;21.722;2023-05-10T09:08:02;10.38;;;3.65;;
71298;SDS011;59083;47.974;21.722;2023-05-10T09:11:03;5.35;;;2.60;;
71298;SDS011;59083;47.974;21.722;2023-05-10T09:14:04;6.90;;;2.78;;
71298;SDS011;59083;47.974;21.722;2023-05-10T09:17:06;6.73;;;2.80;;
71298;SDS011;59083;47.974;21.722;2023-05-10T09:20:07;6.22;;;2.70;;
71298;SDS011;59083;47.974;21.722;2023-05-10T09:23:09;7.78;;;2.62;;
71298;SDS011;59083;47.974;21.722;2023-05-10T09:26:10;5.35;;;2.50;;
71298;SDS011;59083;47.974;21.722;2023-05-10T09:29:11;5.93;;;2.30;;
71298;SDS011;59083;47.974;21.722;2023-05-10T09:32:12;5.33;;;2.50;;
71298;SDS011;59083;47.974;21.722;2023-05-10T09:35:16;4.90;;;2.58;;
71298;SDS011;59083;47.974;21.722;2023-05-10T09:38:19;7.18;;;3.05;;
71298;SDS011;59083;47.974;21.722;2023-05-10T09:41:22;5.68;;;2.90;;
71298;SDS011;59083;47.974;21.722;2023-05-10T09:44:25;6.65;;;2.80;;
71298;SDS011;59083;47.974;21.722;2023-05-10T09:47:27;5.20;;;2.40;;
71298;SDS011;59083;47.974;21.722;2023-05-10T09:50:29;10.13;;;2.42;;
71298;SDS011;59083;47.974;21.722;2023-05-10T09:53:31;5.03;;;2.30;;
71298;SDS011;59083;47.974;21.722;2023-05-10T09:56:35;4.68;;;2.17;;
71298;SDS011;59083;47.974;21.722;2023-05-10T09:59:41;5.85;;;2.58;;
71298;SDS011;59083;47.974;21.722;2023-05-10T10:02:44;6.67;;;2.60;;
71298;SDS011;59083;47.974;21.722;2023-05-10T10:05:47;7.10;;;2.33;;
71298;SDS011;59083;47.974;21.722;2023-05-10T10:08:49;5.32;;;2.40;;
71298;SDS011;59083;47.974;21.722;2023-05-10T10:11:51;4.95;;;2.50;;
71298;SDS011;59083;47.974;21.722;2023-05-10T10:14:53;8.38;;;2.25;;
71298;SDS011;59083;47.974;21.722;2023-05-10T10:17:56;5.60;;;2.10;;
71298;SDS011;59083;47.974;21.722;2023-05-10T10:20:57;3.78;;;2.03;;
71298;SDS011;59083;47.974;21.722;2023-05-10T10:23:59;4.75;;;2.00;;
71298;SDS011;59083;47.974;21.722;2023-05-10T10:27:23;5.03;;;2.30;;
71298;SDS011;59083;47.974;21.722;2023-05-10T10:37:12;6.05;;;2.75;;
71298;SDS011;59083;47.974;21.722;2023-05-10T10:43:43;7.30;;;2.20;;
71298;SDS011;59083;47.974;21.722;2023-05-10T10:50:19;5.00;;;2.20;;
71298;SDS011;59083;47.974;21.722;2023-05-10T10:53:21;4.37;;;2.10;;
71298;SDS011;59083;47.974;21.722;2023-05-10T10:56:22;4.90;;;2.30;;
71298;SDS011;59083;47.974;21.722;2023-05-10T10:59:27;4.28;;;2.12;;
71298;SDS011;59083;47.974;21.722;2023-05-10T11:05:42;5.33;;;2.20;;
71298;SDS011;59083;47.974;21.722;2023-05-10T11:08:45;6.18;;;2.25;;
71298;SDS011;59083;47.974;21.722;2023-05-10T11:11:50;5.07;;;2.30;;
71298;SDS011;59083;47.974;21.722;2023-05-10T11:14:53;4.80;;;2.10;;
71298;SDS011;59083;47.974;21.722;2023-05-10T11:17:58;7.05;;;2.20;;
71298;SDS011;59083;47.974;21.722;2023-05-10T11:21:01;4.90;;;2.47;;
71298;SDS011;59083;47.974;21.722;2023-05-10T11:24:12;5.65;;;2.37;;
71298;SDS011;59083;47.974;21.722;2023-05-10T11:27:14;6.00;;;1.98;;
71298;SDS011;59083;47.974;21.722;2023-05-10T11:30:16;8.70;;;2.10;;
71298;SDS011;59083;47.974;21.722;2023-05-10T11:33:18;6.12;;;2.10;;
71298;SDS011;59083;47.974;21.722;2023-05-10T11:36:21;4.40;;;2.00;;
71298;SDS011;59083;47.974;21.722;2023-05-10T11:39:28;5.43;;;2.00;;
71298;SDS011;59083;47.974;21.722;2023-05-10T11:42:30;4.37;;;2.00;;
71298;SDS011;59083;47.974;21.722;2023-05-10T11:45:32;6.97;;;2.70;;
71298;SDS011;59083;47.974;21.722;2023-05-10T11:48:33;4.18;;;2.00;;
71298;SDS011;59083;47.974;21.722;2023-05-10T11:51:35;6.23;;;2.20;;
71298;SDS011;59083;47.974;21.722;2023-05-10T11:54:37;4.65;;;2.25;;
71298;SDS011;59083;47.974;21.722;2023-05-10T11:57:38;5.50;;;2.20;;
71298;SDS011;59083;47.974;21.722;2023-05-10T12:00:41;7.45;;;2.00;;
71298;SDS011;59083;47.974;21.722;2023-05-10T12:03:43;4.50;;;2.30;;
71298;SDS011;59083;47.974;21.722;2023-05-10T12:06:44;12.00;;;2.20;;
71298;SDS011;59083;47.974;21.722;2023-05-10T12:10:03;4.43;;;1.95;;
71298;SDS011;59083;47.974;21.722;2023-05-10T12:13:12;6.37;;;2.03;;
71298;SDS011;59083;47.974;21.722;2023-05-10T12:16:18;3.85;;;1.83;;
71298;SDS011;59083;47.974;21.722;2023-05-10T12:19:21;5.18;;;1.80;;
71298;SDS011;59083;47.974;21.722;2023-05-10T12:22:22;4.83;;;2.27;;
71298;SDS011;59083;47.974;21.722;2023-05-10T12:25:24;4.28;;;2.00;;
71298;SDS011;59083;47.974;21.722;2023-05-10T12:28:32;4.70;;;1.87;;
71298;SDS011;59083;47.974;21.722;2023-05-10T12:31:33;4.65;;;1.90;;
71298;SDS011;59083;47.974;21.722;2023-05-10T12:34:59;5.93;;;1.83;;
71298;SDS011;59083;47.974;21.722;2023-05-10T12:38:00;3.63;;;1.80;;
71298;SDS011;59083;47.974;21.722;2023-05-10T12:41:02;4.65;;;1.90;;
71298;SDS011;59083;47.974;21.722;2023-05-10T12:44:05;5.30;;;1.90;;
71298;SDS011;59083;47.974;21.722;2023-05-10T12:47:06;3.35;;;1.75;;
71298;SDS011;59083;47.974;21.722;2023-05-10T12:50:08;4.10;;;1.75;;
71298;SDS011;59083;47.974;21.722;2023-05-10T12:53:09;5.17;;;2.17;;
71298;SDS011;59083;47.974;21.722;2023-05-10T12:56:10;4.57;;;2.00;;
71298;SDS011;59083;47.974;21.722;2023-05-10T12:59:12;3.70;;;1.80;;
71298;SDS011;59083;47.974;21.722;2023-05-10T13:02:13;4.32;;;1.90;;
71298;SDS011;59083;47.974;21.722;2023-05-10T13:05:15;4.35;;;1.83;;
71298;SDS011;59083;47.974;21.722;2023-05-10T13:08:16;4.43;;;1.90;;
71298;SDS011;59083;47.974;21.722;2023-05-10T13:11:18;3.67;;;1.80;;
71298;SDS011;59083;47.974;21.722;2023-05-10T13:14:20;3.53;;;1.60;;
71298;SDS011;59083;47.974;21.722;2023-05-10T13:17:21;3.95;;;1.92;;
71298;SDS011;59083;47.974;21.722;2023-05-10T13:20:23;5.12;;;1.90;;
71298;SDS011;59083;47.974;21.722;2023-05-10T13:23:24;5.20;;;2.10;;
71298;SDS011;59083;47.974;21.722;2023-05-10T13:26:25;7.07;;;2.15;;
71298;SDS011;59083;47.974;21.722;2023-05-10T13:29:49;4.30;;;1.80;;
71298;SDS011;59083;47.974;21.722;2023-05-10T13:32:51;6.40;;;3.35;;
71298;SDS011;59083;47.974;21.722;2023-05-10T13:35:52;4.68;;;1.85;;
71298;SDS011;59083;47.974;21.722;2023-05-10T13:38:53;4.07;;;1.90;;
71298;SDS011;59083;47.974;21.722;2023-05-10T13:41:54;5.18;;;2.05;;
71298;SDS011;59083;47.974;21.722;2023-05-10T13:44:55;5.10;;;1.83;;
71298;SDS011;59083;47.974;21.722;2023-05-10T13:47:57;5.47;;;1.87;;
71298;SDS011;59083;47.974;21.722;2023-05-10T13:50:58;4.12;;;1.90;;
71298;SDS011;59083;47.974;21.722;2023-05-10T13:53:59;4.17;;;1.90;;
71298;SDS011;59083;47.974;21.722;2023-05-10T13:57:00;5.18;;;1.90;;
71298;SDS011;59083;47.974;21.722;2023-05-10T14:00:02;8.90;;;1.90;;
71298;SDS011;59083;47.974;21.722;2023-05-10T14:03:08;5.07;;;2.00;;
71298;SDS011;59083;47.974;21.722;2023-05-10T14:06:11;6.90;;;2.12;;
71298;SDS011;59083;47.974;21.722;2023-05-10T14:09:12;5.63;;;2.00;;
71298;SDS011;59083;47.974;21.722;2023-05-10T14:12:14;4.53;;;1.90;;
71298;SDS011;59083;47.974;21.722;2023-05-10T14:15:16;5.47;;;2.00;;
71298;SDS011;59083;47.974;21.722;2023-05-10T14:18:17;3.80;;;1.73;;
71298;SDS011;59083;47.974;21.722;2023-05-10T14:21:18;4.82;;;1.80;;
71298;SDS011;59083;47.974;21.722;2023-05-10T14:24:20;12.93;;;6.90;;
71298;SDS011;59083;47.974;21.722;2023-05-10T14:27:21;9.43;;;4.95;;
71298;SDS011;59083;47.974;21.722;2023-05-10T14:30:22;4.87;;;2.08;;
71298;SDS011;59083;47.974;21.722;2023-05-10T14:33:23;4.20;;;1.83;;
71298;SDS011;59083;47.974;21.722;2023-05-10T14:36:24;6.00;;;1.90;;
71298;SDS011;59083;47.974;21.722;2023-05-10T14:39:26;3.90;;;1.90;;
71298;SDS011;59083;47.974;21.722;2023-05-10T14:42:30;4.72;;;1.95;;
71298;SDS011;59083;47.974;21.722;2023-05-10T14:45:31;4.25;;;1.80;;
71298;SDS011;59083;47.974;21.722;2023-05-10T14:48:33;3.62;;;1.80;;
71298;SDS011;59083;47.974;21.722;2023-05-10T14:51:34;3.62;;;1.80;;
71298;SDS011;59083;47.974;21.722;2023-05-10T14:54:37;4.13;;;1.60;;
71298;SDS011;59083;47.974;21.722;2023-05-10T14:57:39;5.05;;;1.52;;
71298;SDS011;59083;47.974;21.722;2023-05-10T15:00:40;4.10;;;1.70;;
71298;SDS011;59083;47.974;21.722;2023-05-10T15:03:41;4.03;;;1.83;;
71298;SDS011;59083;47.974;21.722;2023-05-10T15:06:43;4.80;;;1.92;;
71298;SDS011;59083;47.974;21.722;2023-05-10T15:09:44;4.60;;;1.80;;
71298;SDS011;59083;47.974;21.722;2023-05-10T15:12:46;3.83;;;1.70;;
71298;SDS011;59083;47.974;21.722;2023-05-10T15:15:47;4.68;;;1.90;;
71298;SDS011;59083;47.974;21.722;2023-05-10T15:18:48;3.78;;;1.80;;
71298;SDS011;59083;47.974;21.722;2023-05-10T15:21:49;6.00;;;2.10;;
71298;SDS011;59083;47.974;21.722;2023-05-10T15:24:51;5.40;;;1.83;;
71298;SDS011;59083;47.974;21.722;2023-05-10T15:27:52;4.15;;;1.90;;
71298;SDS011;59083;47.974;21.722;2023-05-10T15:30:53;4.60;;;1.80;;
71298;SDS011;59083;47.974;21.722;2023-05-10T15:33:58;4.75;;;1.80;;
71298;SDS011;59083;47.974;21.722;2023-05-10T15:37:01;5.53;;;1.77;;
71298;SDS011;59083;47.974;21.722;2023-05-10T15:40:03;4.43;;;1.87;;
71298;SDS011;59083;47.974;21.722;2023-05-10T15:43:05;5.10;;;1.90;;
71298;SDS011;59083;47.974;21.722;2023-05-10T15:46:06;4.28;;;1.70;;
71298;SDS011;59083;47.974;21.722;2023-05-10T15:49:07;5.62;;;1.98;;
71298;SDS011;59083;47.974;21.722;2023-05-10T15:52:08;4.15;;;2.05;;
71298;SDS011;59083;47.974;21.722;2023-05-10T15:55:10;5.57;;;2.10;;
71298;SDS011;59083;47.974;21.722;2023-05-10T15:58:13;5.68;;;1.92;;
71298;SDS011;59083;47.974;21.722;2023-05-10T16:01:15;4.30;;;1.80;;
71298;SDS011;59083;47.974;21.722;2023-05-10T16:04:16;4.97;;;1.92;;
71298;SDS011;59083;47.974;21.722;2023-05-10T16:07:17;4.05;;;1.80;;
71298;SDS011;59083;47.974;21.722;2023-05-10T16:10:19;4.27;;;1.97;;
71298;SDS011;59083;47.974;21.722;2023-05-10T16:13:20;7.85;;;2.22;;
71298;SDS011;59083;47.974;21.722;2023-05-10T16:16:21;4.15;;;1.83;;
71298;SDS011;59083;47.974;21.722;2023-05-10T16:19:23;7.70;;;2.17;;
71298;SDS011;59083;47.974;21.722;2023-05-10T16:22:24;6.90;;;2.33;;
71298;SDS011;59083;47.974;21.722;2023-05-10T16:25:29;5.17;;;2.10;;
71298;SDS011;59083;47.974;21.722;2023-05-10T16:28:31;5.25;;;1.70;;
71298;SDS011;59083;47.974;21.722;2023-05-10T16:31:32;3.08;;;1.70;;
71298;SDS011;59083;47.974;21.722;2023-05-10T16:34:34;5.05;;;2.17;;
71298;SDS011;59083;47.974;21.722;2023-05-10T16:37:35;5.37;;;2.10;;
71298;SDS011;59083;47.974;21.722;2023-05-10T16:40:36;4.33;;;1.87;;
71298;SDS011;59083;47.974;21.722;2023-05-10T16:43:37;4.60;;;2.08;;
71298;SDS011;59083;47.974;21.722;2023-05-10T16:46:39;4.15;;;1.80;;
71298;SDS011;59083;47.974;21.722;2023-05-10T16:49:40;6.35;;;2.10;;
71298;SDS011;59083;47.974;21.722;2023-05-10T16:52:42;4.90;;;1.85;;
71298;SDS011;59083;47.974;21.722;2023-05-10T16:55:43;5.87;;;2.13;;
71298;SDS011;59083;47.974;21.722;2023-05-10T16:58:45;5.70;;;2.00;;
71298;SDS011;59083;47.974;21.722;2023-05-10T17:01:47;4.85;;;1.80;;
71298;SDS011;59083;47.974;21.722;2023-05-10T17:04:48;4.10;;;1.80;;
71298;SDS011;59083;47.974;21.722;2023-05-10T17:07:50;5.78;;;2.00;;
71298;SDS011;59083;47.974;21.722;2023-05-10T17:10:51;6.97;;;1.80;;
71298;SDS011;59083;47.974;21.722;2023-05-10T17:13:52;3.62;;;1.80;;
71298;SDS011;59083;47.974;21.722;2023-05-10T17:16:54;5.82;;;1.73;;
71298;SDS011;59083;47.974;21.722;2023-05-10T17:19:55;4.65;;;1.83;;
71298;SDS011;59083;47.974;21.722;2023-05-10T17:22:56;5.28;;;2.00;;
71298;SDS011;59083;47.974;21.722;2023-05-10T17:25:57;5.73;;;2.00;;
71298;SDS011;59083;47.974;21.722;2023-05-10T17:28:59;6.53;;;2.40;;
71298;SDS011;59083;47.974;21.722;2023-05-10T17:32:00;6.00;;;2.42;;
71298;SDS011;59083;47.974;21.722;2023-05-10T17:35:02;9.18;;;2.10;;
71298;SDS011;59083;47.974;21.722;2023-05-10T17:38:04;5.22;;;2.00;;
71298;SDS011;59083;47.974;21.722;2023-05-10T17:41:06;6.10;;;2.20;;
71298;SDS011;59083;47.974;21.722;2023-05-10T17:44:07;4.85;;;2.20;;
71298;SDS011;59083;47.974;21.722;2023-05-10T17:47:08;7.45;;;2.33;;
71298;SDS011;59083;47.974;21.722;2023-05-10T17:50:09;6.18;;;2.28;;
71298;SDS011;59083;47.974;21.722;2023-05-10T17:53:11;5.60;;;2.70;;
71298;SDS011;59083;47.974;21.722;2023-05-10T17:56:12;7.87;;;3.00;;
71298;SDS011;59083;47.974;21.722;2023-05-10T17:59:13;7.95;;;2.70;;
71298;SDS011;59083;47.974;21.722;2023-05-10T18:02:14;9.38;;;2.62;;
71298;SDS011;59083;47.974;21.722;2023-05-10T18:05:16;6.03;;;3.03;;
71298;SDS011;59083;47.974;21.722;2023-05-10T18:08:17;7.60;;;3.00;;
71298;SDS011;59083;47.974;21.722;2023-05-10T18:11:22;9.10;;;2.93;;
71298;SDS011;59083;47.974;21.722;2023-05-10T18:14:23;8.63;;;2.85;;
71298;SDS011;59083;47.974;21.722;2023-05-10T18:17:27;8.25;;;3.00;;
71298;SDS011;59083;47.974;21.722;2023-05-10T18:20:28;7.87;;;2.58;;
71298;SDS011;59083;47.974;21.722;2023-05-10T18:23:30;6.30;;;2.80;;
71298;SDS011;59083;47.974;21.722;2023-05-10T18:26:31;7.33;;;2.80;;
71298;SDS011;59083;47.974;21.722;2023-05-10T18:29:32;8.65;;;3.35;;
71298;SDS011;59083;47.974;21.722;2023-05-10T18:32:34;10.25;;;3.45;;
71298;SDS011;59083;47.974;21.722;2023-05-10T18:35:36;7.68;;;3.25;;
71298;SDS011;59083;47.974;21.722;2023-05-10T18:38:38;8.98;;;3.47;;